createdAt,value
2019-04-21T00:05:24.960Z,59.57
2019-04-21T00:07:50.493Z,60.47
2019-04-21T00:10:27.266Z,60.38
2019-04-21T00:12:52.235Z,60.95
2019-04-21T00:15:19.365Z,60.55
2019-04-21T00:17:39.078Z,61.00
2019-04-21T00:20:20.452Z,61.33
2019-04-21T00:22:52.101Z,61.67
2019-04-21T00:25:23.541Z,61.31
2019-04-21T00:28:09.410Z,61.91
2019-04-21T00:30:42.826Z,62.28
2019-04-21T00:32:59.743Z,61.72
2019-04-21T00:35:24.388Z,61.37
2019-04-21T00:38:13.658Z,62.45
2019-04-21T00:40:41.794Z,62.22
2019-04-21T00:43:13.575Z,62.53
2019-04-21T00:45:38.547Z,62.18
2019-04-21T00:48:17.988Z,62.57
2019-04-21T00:51:05.523Z,62.91
2019-04-21T00:53:43.852Z,62.37
2019-04-21T00:56:08.948Z,63.78
2019-04-21T00:58:43.712Z,63.33
2019-04-21T01:01:07.394Z,63.63
2019-04-21T01:03:41.672Z,64.34
2019-04-21T01:06:11.435Z,64.34
2019-04-21T01:08:35.779Z,64.48
2019-04-21T01:11:12.328Z,64.48
2019-04-21T01:13:45.572Z,64.29
2019-04-21T01:16:13.831Z,64.53
2019-04-21T01:18:48.305Z,64.72
2019-04-21T01:20:51.092Z,65.31
2019-04-21T01:23:21.757Z,65.44
2019-04-21T01:26:07.588Z,65.01
2019-04-21T01:28:41.364Z,65.42
2019-04-21T01:31:15.387Z,65.46
2019-04-21T01:33:52.134Z,65.65
2019-04-21T01:36:14.008Z,65.65
2019-04-21T01:38:58.663Z,65.00
2019-04-21T01:41:20.958Z,66.22
2019-04-21T01:43:45.815Z,66.22
2019-04-21T01:46:14.118Z,67.24
2019-04-21T01:48:46.338Z,67.24
2019-04-21T01:51:15.759Z,67.97
2019-04-21T01:53:55.140Z,68.03
2019-04-21T01:56:38.693Z,67.05
2019-04-21T01:58:59.453Z,67.05
2019-04-21T02:01:39.210Z,67.80
2019-04-21T02:04:16.218Z,67.80
2019-04-21T02:06:45.613Z,68.00
2019-04-21T02:09:09.717Z,68.00
2019-04-21T02:11:52.070Z,67.61
2019-04-21T02:14:15.724Z,68.86
2019-04-21T02:16:48.246Z,68.97
2019-04-21T02:19:11.640Z,67.72
2019-04-21T02:21:39.308Z,69.26
2019-04-21T02:24:25.454Z,69.26
2019-04-21T02:26:49.041Z,69.96
2019-04-21T02:29:24.678Z,69.96
2019-04-21T02:32:11.197Z,70.27
2019-04-21T02:34:27.263Z,70.62
2019-04-21T02:37:17.924Z,70.62
2019-04-21T02:47:16.651Z,71.50
2019-04-21T02:52:01.244Z,70.99
2019-04-21T02:54:48.383Z,70.99
2019-04-21T02:57:01.400Z,71.50
2019-04-21T03:02:25.676Z,71.86
2019-04-21T03:05:18.228Z,72.44
2019-04-21T03:07:50.258Z,72.75
2019-04-21T03:10:17.844Z,72.79
2019-04-21T03:12:42.115Z,73.56
2019-04-21T03:15:21.312Z,73.67
2019-04-21T03:17:51.525Z,74.50
2019-04-21T03:20:17.640Z,74.50
2019-04-21T03:22:42.364Z,73.84
2019-04-21T03:25:30.781Z,74.02
2019-04-21T03:30:29.267Z,74.61
2019-04-21T03:37:42.394Z,75.22
2019-04-21T03:40:14.922Z,75.39
2019-04-21T03:42:53.053Z,76.01
2019-04-21T03:45:27.112Z,76.24
2019-04-21T03:47:43.157Z,76.00
2019-04-21T03:50:20.525Z,76.18
2019-04-21T03:52:53.319Z,76.50
2019-04-21T03:55:51.417Z,76.13
2019-04-21T04:03:27.316Z,75.05
2019-04-21T04:08:44.802Z,76.29
2019-04-21T04:13:39.210Z,76.96
2019-04-21T04:18:46.204Z,77.30
2019-04-21T04:21:10.205Z,78.03
2019-04-21T04:23:42.554Z,77.88
2019-04-21T04:31:05.695Z,78.22
2019-04-21T04:38:39.552Z,78.70
2019-04-21T04:41:33.612Z,78.38
2019-04-21T04:43:44.562Z,78.09
2019-04-21T04:46:22.341Z,78.12
2019-04-21T04:48:41.943Z,77.47
2019-04-21T04:51:25.248Z,77.56
2019-04-21T04:53:45.981Z,77.77
2019-04-21T04:59:20.170Z,76.26
2019-04-21T05:01:28.944Z,76.12
2019-04-21T05:03:48.988Z,75.31
2019-04-21T05:14:02.949Z,74.57
2019-04-21T05:21:34.722Z,72.44
2019-04-21T05:23:47.017Z,73.30
2019-04-21T05:26:10.874Z,73.64
2019-04-21T05:28:42.025Z,72.03
2019-04-21T05:31:27.522Z,73.08
2019-04-21T05:34:00.424Z,73.08
2019-04-21T05:36:38.253Z,72.29
2019-04-21T05:39:10.422Z,71.97
2019-04-21T05:41:36.169Z,71.65
2019-04-21T05:44:20.458Z,70.99
2019-04-21T05:46:49.435Z,69.02
2019-04-21T05:49:20.581Z,69.02
2019-04-21T05:54:44.310Z,67.27
2019-04-21T05:57:22.259Z,67.27
2019-04-21T06:07:38.261Z,63.47
2019-04-21T06:10:07.272Z,63.61
2019-04-21T06:12:33.993Z,63.61
2019-04-21T06:15:09.627Z,62.64
2019-04-21T06:17:47.260Z,60.96
2019-04-21T06:20:07.872Z,62.04
2019-04-21T06:22:39.834Z,61.86
2019-04-21T06:25:31.229Z,59.94
2019-04-21T06:27:42.426Z,60.75
2019-04-21T06:30:05.240Z,61.46
2019-04-21T06:32:46.789Z,60.08
2019-04-21T06:38:00.922Z,59.16
2019-04-21T06:40:35.761Z,58.20
2019-04-21T06:43:15.683Z,58.18
2019-04-21T06:45:36.607Z,57.93
2019-04-21T06:48:05.982Z,57.19
2019-04-21T06:50:31.846Z,57.32
2019-04-21T06:53:13.527Z,57.12
2019-04-21T06:55:35.226Z,55.90
2019-04-21T06:58:07.872Z,55.99
2019-04-21T07:00:33.072Z,57.79
2019-04-21T07:03:17.021Z,55.91
2019-04-21T07:05:34.626Z,56.96
2019-04-21T07:08:27.902Z,57.13
2019-04-21T07:10:35.420Z,55.60
2019-04-21T07:13:03.744Z,55.61
2019-04-21T07:15:36.931Z,56.10
2019-04-21T07:18:04.437Z,55.52
2019-04-21T07:20:36.628Z,54.51
2019-04-21T07:23:09.426Z,55.51
2019-04-21T07:25:40.795Z,54.32
2019-04-21T07:28:05.257Z,54.89
2019-04-21T07:30:45.335Z,52.43
2019-04-21T07:33:33.143Z,53.96
2019-04-21T07:35:37.302Z,54.10
2019-04-21T07:38:11.958Z,53.58
2019-04-21T07:40:36.512Z,53.92
2019-04-21T07:43:05.672Z,53.31
2019-04-21T07:45:35.060Z,51.04
2019-04-21T07:48:12.689Z,52.04
2019-04-21T07:50:56.290Z,50.98
2019-04-21T07:55:37.437Z,50.08
2019-04-21T07:58:29.846Z,51.06
2019-04-21T08:03:30.370Z,49.03
2019-04-21T08:05:58.562Z,49.10
2019-04-21T08:08:27.795Z,49.83
2019-04-21T08:11:00.031Z,47.26
2019-04-21T08:13:34.543Z,48.15
2019-04-21T08:15:58.320Z,48.53
2019-04-21T08:18:36.196Z,48.59
2019-04-21T08:21:02.465Z,46.72
2019-04-21T08:23:31.893Z,45.37
2019-04-21T08:26:04.848Z,45.22
2019-04-21T08:28:35.827Z,45.29
2019-04-21T08:31:02.739Z,45.43
2019-04-21T08:33:41.464Z,42.82
2019-04-21T08:38:37.774Z,42.76
2019-04-21T08:41:08.561Z,43.83
2019-04-21T08:43:43.166Z,41.01
2019-04-21T08:46:08.217Z,41.98
2019-04-21T08:48:40.438Z,41.54
2019-04-21T08:51:18.531Z,41.13
2019-04-21T08:56:18.435Z,39.68
2019-04-21T08:59:03.861Z,39.38
2019-04-21T09:01:41.587Z,39.03
2019-04-21T09:04:07.540Z,39.08
2019-04-21T09:06:55.709Z,38.29
2019-04-21T09:09:10.952Z,39.55
2019-04-21T09:11:36.279Z,38.73
2019-04-21T09:14:07.090Z,36.92
2019-04-21T09:16:39.672Z,36.74
2019-04-21T09:19:04.423Z,38.84
2019-04-21T09:21:45.440Z,38.18
2019-04-21T09:24:16.222Z,36.75
2019-04-21T09:26:40.647Z,36.42
2019-04-21T09:29:04.271Z,35.87
2019-04-21T09:31:31.857Z,38.74
2019-04-21T09:34:02.302Z,38.10
2019-04-21T09:36:36.202Z,36.13
2019-04-21T09:39:07.789Z,36.20
2019-04-21T09:41:30.908Z,34.50
2019-04-21T09:44:01.225Z,35.95
2019-04-21T09:46:29.966Z,34.87
2019-04-21T09:49:02.659Z,35.08
2019-04-21T09:51:28.812Z,34.99
2019-04-21T09:54:05.779Z,34.71
2019-04-21T09:56:35.822Z,34.15
2019-04-21T09:59:10.133Z,34.92
2019-04-21T10:01:42.042Z,33.62
2019-04-21T10:04:02.414Z,33.44
2019-04-21T10:06:30.667Z,34.44
2019-04-21T10:09:04.147Z,35.53
2019-04-21T10:11:31.119Z,32.73
2019-04-21T10:14:00.889Z,34.00
2019-04-21T10:16:34.358Z,33.24
2019-04-21T10:19:02.922Z,35.44
2019-04-21T10:21:31.878Z,33.56
2019-04-21T10:24:00.482Z,34.84
2019-04-21T10:26:29.036Z,33.59
2019-04-21T10:29:05.688Z,31.67
2019-04-21T10:31:29.030Z,31.31
2019-04-21T10:33:58.839Z,33.19
2019-04-21T10:36:27.449Z,32.31
2019-04-21T10:38:57.661Z,32.03
2019-04-21T10:41:27.587Z,30.05
2019-04-21T10:43:56.200Z,32.84
2019-04-21T10:46:24.795Z,31.34
2019-04-21T10:48:54.808Z,32.75
2019-04-21T10:51:23.567Z,32.21
2019-04-21T10:53:57.902Z,32.64
2019-04-21T10:56:30.631Z,31.95
2019-04-21T10:58:56.237Z,31.25
2019-04-21T11:01:27.204Z,31.21
2019-04-21T11:03:58.497Z,31.65
2019-04-21T11:06:28.576Z,30.09
2019-04-21T11:08:59.487Z,30.80
2019-04-21T11:11:27.986Z,29.96
2019-04-21T11:13:56.917Z,30.11
2019-04-21T11:16:26.800Z,30.34
2019-04-21T11:18:55.960Z,30.81
2019-04-21T11:21:25.023Z,30.03
2019-04-21T11:23:54.251Z,31.37
2019-04-21T11:26:24.129Z,30.23
2019-04-21T11:28:52.850Z,30.97
2019-04-21T11:31:22.939Z,28.95
2019-04-21T11:33:55.830Z,30.55
2019-04-21T11:36:24.984Z,29.50
2019-04-21T11:39:11.011Z,28.88
2019-04-21T11:41:26.025Z,30.97
2019-04-21T11:43:55.012Z,29.38
2019-04-21T11:46:24.502Z,30.46
2019-04-21T11:48:54.681Z,29.39
2019-04-21T11:51:24.798Z,29.82
2019-04-21T11:53:54.896Z,29.26
2019-04-21T11:56:24.970Z,27.92
2019-04-21T11:58:54.058Z,27.85
2019-04-21T12:01:23.482Z,28.69
2019-04-21T12:03:55.694Z,29.45
2019-04-21T12:06:32.252Z,27.49
2019-04-21T12:08:57.670Z,29.04
2019-04-21T12:11:25.228Z,28.36
2019-04-21T12:13:54.249Z,27.43
2019-04-21T12:16:23.335Z,29.17
2019-04-21T12:18:54.647Z,29.39
2019-04-21T12:21:23.548Z,27.47
2019-04-21T12:23:58.658Z,29.07
2019-04-21T12:26:28.294Z,28.91
2019-04-21T12:28:57.631Z,29.32
2019-04-21T12:31:31.748Z,27.62
2019-04-21T12:34:03.544Z,28.83
2019-04-21T12:36:33.719Z,28.26
2019-04-21T12:39:05.074Z,29.11
2019-04-21T12:41:32.948Z,28.82
2019-04-21T12:44:02.549Z,27.59
2019-04-21T12:46:31.836Z,28.67
2019-04-21T12:49:00.484Z,27.56
2019-04-21T12:51:30.182Z,29.22
2019-04-21T12:53:59.574Z,29.18
2019-04-21T12:56:29.475Z,29.87
2019-04-21T12:58:59.443Z,28.18
2019-04-21T13:01:28.153Z,30.24
2019-04-21T13:03:57.826Z,28.25
2019-04-21T13:06:27.686Z,27.64
2019-04-21T13:09:03.387Z,29.00
2019-04-21T13:11:26.732Z,29.89
2019-04-21T13:13:55.707Z,28.80
2019-04-21T13:16:25.420Z,27.61
2019-04-21T13:18:55.328Z,27.83
2019-04-21T13:21:24.325Z,25.88
2019-04-21T13:23:52.892Z,26.64
2019-04-21T13:26:32.769Z,27.39
2019-04-21T13:28:54.222Z,28.29
2019-04-21T13:31:24.469Z,27.16
2019-04-21T13:33:53.256Z,28.95
2019-04-21T13:36:21.802Z,27.88
2019-04-21T13:39:42.349Z,27.83
2019-04-21T13:41:50.489Z,27.52
2019-04-21T13:44:15.911Z,28.36
2019-04-21T13:46:47.127Z,26.94
2019-04-21T13:49:17.374Z,27.51
2019-04-21T13:51:46.075Z,26.97
2019-04-21T13:54:15.707Z,26.46
2019-04-21T13:56:44.928Z,26.00
2019-04-21T13:59:14.027Z,26.86
2019-04-21T14:01:43.632Z,26.07
2019-04-21T14:04:13.638Z,28.70
2019-04-21T14:06:42.525Z,27.63
2019-04-21T14:09:13.704Z,26.68
2019-04-21T14:11:43.441Z,26.85
2019-04-21T14:14:12.540Z,26.61
2019-04-21T14:16:42.355Z,26.56
2019-04-21T14:19:10.967Z,27.37
2019-04-21T14:21:39.602Z,25.48
2019-04-21T14:24:08.895Z,24.98
2019-04-21T14:26:38.530Z,25.77
2019-04-21T14:29:07.748Z,27.31
2019-04-21T14:31:38.113Z,26.55
2019-04-21T14:34:08.037Z,26.43
2019-04-21T14:36:37.026Z,26.21
2019-04-21T14:39:10.374Z,26.76
2019-04-21T14:41:40.321Z,26.84
2019-04-21T14:44:09.216Z,26.46
2019-04-21T14:46:45.214Z,27.00
2019-04-21T14:49:19.340Z,25.38
2019-04-21T14:51:56.753Z,27.18
2019-04-21T14:54:33.140Z,26.99
2019-04-21T14:57:03.251Z,26.37
2019-04-21T14:59:33.246Z,26.30
2019-04-21T15:02:02.192Z,25.53
2019-04-21T15:04:31.554Z,25.74
2019-04-21T15:07:01.331Z,25.49
2019-04-21T15:09:31.350Z,24.75
2019-04-21T15:12:02.266Z,23.92
2019-04-21T15:14:31.865Z,25.16
2019-04-21T15:17:01.005Z,25.47
2019-04-21T15:19:30.817Z,24.64
2019-04-21T15:22:00.724Z,24.19
2019-04-21T15:24:30.174Z,22.93
2019-04-21T15:26:59.092Z,23.27
2019-04-21T15:29:28.880Z,23.65
2019-04-21T15:31:58.843Z,22.84
2019-04-21T15:34:27.526Z,22.02
2019-04-21T15:36:56.094Z,23.16
2019-04-21T15:39:25.743Z,21.80
2019-04-21T15:41:58.779Z,22.76
2019-04-21T15:44:27.516Z,21.97
2019-04-21T15:46:56.071Z,22.16
2019-04-21T15:49:28.322Z,21.20
2019-04-21T15:51:58.016Z,22.46
2019-04-21T15:54:27.254Z,23.91
2019-04-21T15:57:00.755Z,23.58
2019-04-21T15:59:30.956Z,24.30
2019-04-21T16:02:17.051Z,24.04
2019-04-21T16:04:46.533Z,23.90
2019-04-21T16:07:16.117Z,24.95
2019-04-21T16:09:46.083Z,23.49
2019-04-21T16:12:15.928Z,25.13
2019-04-21T16:17:13.354Z,26.04
2019-04-21T16:19:41.903Z,26.68
2019-04-21T16:22:10.839Z,29.43
2019-04-21T16:24:39.860Z,28.41
2019-04-21T16:27:10.719Z,28.47
2019-04-21T16:29:39.526Z,29.68
2019-04-21T16:32:09.115Z,29.46
2019-04-21T16:34:48.384Z,28.42
2019-04-21T16:37:08.216Z,31.45
2019-04-21T16:39:37.770Z,30.33
2019-04-21T16:42:08.408Z,29.93
2019-04-21T16:44:37.084Z,30.36
2019-04-21T16:47:07.629Z,30.83
2019-04-21T16:49:37.911Z,31.01
2019-04-21T16:52:08.214Z,32.35
2019-04-21T16:54:37.912Z,31.39
2019-04-21T16:57:08.245Z,30.68
2019-04-21T16:59:39.016Z,29.29
2019-04-21T17:02:07.696Z,30.09
2019-04-21T17:04:36.406Z,31.26
2019-04-21T17:07:05.261Z,31.52
2019-04-21T17:09:34.677Z,31.72
2019-04-21T17:12:06.384Z,29.48
2019-04-21T17:16:27.343Z,31.20
2019-04-21T17:17:26.873Z,31.58
2019-04-21T17:19:42.073Z,32.89
2019-04-21T17:22:05.897Z,32.63
2019-04-21T17:24:34.793Z,33.02
2019-04-21T17:27:05.011Z,32.99
2019-04-21T17:29:34.565Z,33.43
2019-04-21T17:32:07.437Z,33.49
2019-04-21T17:34:35.526Z,32.95
2019-04-21T17:37:05.430Z,33.99
2019-04-21T17:39:34.615Z,34.35
2019-04-21T17:42:16.584Z,34.50
2019-04-21T17:44:35.089Z,34.66
2019-04-21T17:47:11.730Z,35.49
2019-04-21T17:49:37.050Z,35.31
2019-04-21T17:52:11.743Z,36.86
2019-04-21T17:54:48.418Z,36.97
2019-04-21T17:57:32.327Z,36.10
2019-04-21T18:00:04.218Z,36.19
2019-04-21T18:02:36.943Z,36.29
2019-04-21T18:05:08.593Z,36.69
2019-04-21T18:07:36.347Z,37.00
2019-04-21T18:10:17.466Z,37.56
2019-04-21T18:12:33.778Z,37.71
2019-04-21T18:14:59.834Z,38.34
2019-04-21T18:17:20.610Z,38.39
2019-04-21T18:19:51.853Z,39.02
2019-04-21T18:22:43.522Z,39.13
2019-04-21T18:25:25.365Z,38.91
2019-04-21T18:27:42.708Z,39.50
2019-04-21T18:30:40.337Z,39.30
2019-04-21T18:33:15.509Z,39.50
2019-04-21T18:35:59.977Z,40.44
2019-04-21T18:38:59.990Z,40.75
2019-04-21T18:41:15.418Z,41.14
2019-04-21T18:44:15.198Z,41.48
2019-04-21T18:46:38.679Z,42.05
2019-04-21T18:48:57.221Z,42.01
2019-04-21T18:51:35.918Z,41.32
2019-04-21T18:54:24.237Z,41.60
2019-04-21T18:56:33.766Z,42.30
2019-04-21T18:59:02.818Z,43.16
2019-04-21T19:01:34.825Z,43.39
2019-04-21T19:04:05.376Z,43.11
2019-04-21T19:06:46.950Z,43.42
2019-04-21T19:09:21.591Z,43.66
2019-04-21T19:11:51.834Z,43.77
2019-04-21T19:14:31.981Z,44.24
2019-04-21T19:19:39.221Z,45.03
2019-04-21T19:22:00.361Z,44.87
2019-04-21T19:24:41.318Z,45.44
2019-04-21T19:26:58.788Z,45.10
2019-04-21T19:29:29.178Z,45.56
2019-04-21T19:31:59.965Z,45.54
2019-04-21T19:34:18.468Z,45.63
2019-04-21T19:36:46.675Z,45.85
2019-04-21T19:39:16.434Z,46.04
2019-04-21T19:41:56.098Z,46.19
2019-04-21T19:44:29.334Z,46.61
2019-04-21T19:47:05.206Z,47.03
2019-04-21T19:49:32.130Z,47.62
2019-04-21T19:51:52.291Z,47.81
2019-04-21T19:54:22.890Z,48.53
2019-04-21T19:56:44.815Z,49.03
2019-04-21T19:59:23.828Z,49.00
2019-04-21T20:01:46.768Z,49.37
2019-04-21T20:04:14.766Z,48.83
2019-04-21T20:06:56.976Z,49.83
2019-04-21T20:09:32.206Z,49.08
2019-04-21T20:11:58.174Z,49.00
2019-04-21T20:16:59.279Z,49.48
2019-04-21T20:19:16.207Z,49.75
2019-04-21T20:21:46.998Z,50.50
2019-04-21T20:24:22.922Z,50.15
2019-04-21T20:26:58.594Z,50.85
2019-04-21T20:29:37.463Z,50.76
2019-04-21T20:32:14.732Z,51.48
2019-04-21T20:34:38.662Z,51.15
2019-04-21T20:37:09.603Z,52.32
2019-04-21T20:39:23.020Z,51.69
2019-04-21T20:42:01.825Z,51.53
2019-04-21T20:44:36.859Z,51.61
2019-04-21T20:47:03.808Z,52.24
2019-04-21T20:49:32.173Z,51.94
2019-04-21T20:52:10.767Z,53.22
2019-04-21T20:54:37.134Z,53.51
2019-04-21T20:57:24.179Z,53.74
2019-04-21T20:59:32.701Z,52.37
2019-04-21T21:02:12.013Z,50.58
2019-04-21T21:04:36.916Z,51.27
2019-04-21T21:07:30.635Z,51.02
2019-04-21T21:09:54.355Z,51.59
2019-04-21T21:12:41.065Z,51.78
2019-04-21T21:14:42.333Z,49.65
2019-04-21T21:17:37.846Z,50.92
2019-04-21T21:19:55.764Z,50.16
2019-04-21T21:22:10.942Z,51.66
2019-04-21T21:24:49.628Z,49.93
2019-04-21T21:27:13.018Z,51.17
2019-04-21T21:29:45.751Z,51.68
2019-04-21T21:32:24.155Z,51.42
2019-04-21T21:34:49.637Z,51.21
2019-04-21T21:37:26.828Z,52.44
2019-04-21T21:42:06.101Z,50.78
2019-04-21T21:44:35.286Z,51.71
2019-04-21T21:47:17.514Z,51.41
2019-04-21T21:49:51.196Z,51.38
2019-04-21T21:52:14.428Z,51.30
2019-04-21T21:54:35.981Z,52.21
2019-04-21T21:57:05.123Z,52.70
2019-04-21T21:59:38.070Z,52.65
2019-04-21T22:02:05.274Z,52.70
2019-04-21T22:04:37.271Z,53.91
2019-04-21T22:07:10.000Z,53.18
2019-04-21T22:09:34.900Z,52.41
2019-04-21T22:12:06.688Z,52.58
2019-04-21T22:14:41.574Z,53.85
2019-04-21T22:17:23.739Z,53.19
2019-04-21T22:20:01.849Z,54.16
2019-04-21T22:22:21.566Z,54.50
2019-04-21T22:24:49.331Z,54.17
2019-04-21T22:27:07.253Z,54.15
2019-04-21T22:29:41.728Z,55.27
2019-04-21T22:32:13.477Z,54.40
2019-04-21T22:34:46.774Z,54.40
2019-04-21T22:37:25.895Z,56.16
2019-04-21T22:39:54.386Z,55.32
2019-04-21T22:42:17.321Z,55.08
2019-04-21T22:44:38.614Z,55.67
2019-04-21T22:47:16.804Z,55.89
2019-04-21T22:49:38.795Z,55.98
2019-04-21T22:52:13.805Z,56.08
2019-04-21T22:54:41.314Z,55.97
2019-04-21T22:57:14.848Z,56.74
2019-04-21T22:59:40.438Z,56.88
2019-04-21T23:02:17.657Z,56.74
2019-04-21T23:04:46.215Z,56.69
2019-04-21T23:07:15.415Z,57.05
2019-04-21T23:09:40.612Z,57.38
2019-04-21T23:12:12.476Z,56.67
2019-04-21T23:14:47.424Z,57.92
2019-04-21T23:17:30.809Z,58.10
2019-04-21T23:20:03.623Z,57.46
2019-04-21T23:22:27.570Z,57.67
2019-04-21T23:25:03.054Z,57.81
2019-04-21T23:27:25.116Z,59.16
2019-04-21T23:30:08.177Z,58.61
2019-04-21T23:32:23.862Z,58.53
2019-04-21T23:34:44.169Z,58.38
2019-04-21T23:37:18.492Z,59.09
2019-04-21T23:39:43.588Z,59.11
2019-04-21T23:42:20.776Z,59.42
2019-04-21T23:44:47.500Z,60.37
2019-04-21T23:47:27.788Z,60.75
2019-04-21T23:49:53.346Z,60.25
2019-04-21T23:52:16.025Z,59.86
2019-04-21T23:54:45.175Z,60.52
2019-04-21T23:57:24.598Z,60.40
2019-04-21T23:59:51.892Z,60.54
